^^
Grace C. Lehan Memorial Weather Station Historical Data
Daily Summary for September 23, 2022 Units:  Both    English   Metric
Daily Weekly Monthly Yearly
  High: Low: Average:
Temperature: 60.7 °F /  15.9 °C 49.2 °F /  9.6 °C 54.4 °F /  12.4 °C
Dew Point: 51.6 °F /  10.9 °C 38.3 °F /  3.5 °C 43.2 °F /  6.2 °C
Humidity: 83% 49% 67%
Wind Speed: 7.8mph /  12.6km/h - 2.7mph /  4.3km/h
Wind Gust: 24mph /  38.6km/h - -
Wind- - NW
Pressure: 29.94 in /  1013.8 hPa 29.69 in /  1005.3 hPa -
Precipitation: 0.00 in /  0 mm    
 
 
Tabular Data for September 23, 2022
Time Temperature Dew Point Pressure Wind Wind Speed Wind Gust Humidity Rainfall Rate (Hourly) solar
00:04 57 °F /  13.9 °C 51.6 °F /  10.9 °C 29.69in /  1005.3hPa Calm     82% 0.00in /  0mm 0 W/m2
00:09 57 °F /  13.9 °C 51.5 °F /  10.8 °C 29.69in /  1005.3hPa WNW 0.9mph /  1.4km/h 5mph /  8km/h 82% 0.00in /  0mm 0 W/m2
00:14 56.9 °F /  13.8 °C 51.1 °F /  10.6 °C 29.70in /  1005.6hPa WNW 0.8mph /  1.3km/h 10mph /  16.1km/h 81% 0.00in /  0mm 0 W/m2
00:19 56.9 °F /  13.8 °C 51.1 °F /  10.6 °C 29.70in /  1005.6hPa NW 0.8mph /  1.3km/h 10mph /  16.1km/h 81% 0.00in /  0mm 0 W/m2
00:24 56.8 °F /  13.8 °C 50.8 °F /  10.4 °C 29.70in /  1005.6hPa WNW 1.5mph /  2.4km/h 12mph /  19.3km/h 80.2% 0.00in /  0mm 0 W/m2
00:29 56.8 °F /  13.8 °C 50.4 °F /  10.2 °C 29.70in /  1005.6hPa NW 0.8mph /  1.3km/h 12mph /  19.3km/h 79.1% 0.00in /  0mm 0 W/m2
00:34 56.7 °F /  13.7 °C 50.1 °F /  10.1 °C 29.70in /  1005.6hPa NW 2.7mph /  4.3km/h 12mph /  19.3km/h 78.3% 0.00in /  0mm 0 W/m2
00:39 56.7 °F /  13.7 °C 49.9 °F /  9.9 °C 29.71in /  1006hPa NNW 0.9mph /  1.4km/h 10mph /  16.1km/h 77.9% 0.00in /  0mm 0 W/m2
00:44 56.7 °F /  13.7 °C 49.6 °F /  9.8 °C 29.71in /  1006hPa NW 1.6mph /  2.6km/h 10mph /  16.1km/h 77.2% 0.00in /  0mm 0 W/m2
00:49 56.6 °F /  13.7 °C 49.5 °F /  9.7 °C 29.71in /  1006hPa West 0.7mph /  1.1km/h 10mph /  16.1km/h 76.8% 0.00in /  0mm 0 W/m2
00:54 56.6 °F /  13.7 °C 49.4 °F /  9.7 °C 29.71in /  1006hPa WNW 2mph /  3.2km/h 10mph /  16.1km/h 76.7% 0.00in /  0mm 0 W/m2
00:59 56.5 °F /  13.6 °C 49.2 °F /  9.6 °C 29.71in /  1006hPa NW 1mph /  1.6km/h 12mph /  19.3km/h 76.4% 0.00in /  0mm 0 W/m2
01:04 56.4 °F /  13.6 °C 49.2 °F /  9.6 °C 29.71in /  1006hPa NW 2.4mph /  3.9km/h 12mph /  19.3km/h 76.6% 0.00in /  0mm 0 W/m2
01:09 56.3 °F /  13.5 °C 49 °F /  9.4 °C 29.71in /  1006hPa NW 0.7mph /  1.1km/h 11mph /  17.7km/h 76.5% 0.00in /  0mm 0 W/m2
01:14 56.2 °F /  13.4 °C 49.1 °F /  9.5 °C 29.72in /  1006.3hPa NW 0.8mph /  1.3km/h 11mph /  17.7km/h 77% 0.00in /  0mm 0 W/m2
01:19 56 °F /  13.3 °C 48.7 °F /  9.3 °C 29.72in /  1006.3hPa WNW 0.7mph /  1.1km/h 11mph /  17.7km/h 76.5% 0.00in /  0mm 0 W/m2
01:24 55.8 °F /  13.2 °C 48.5 °F /  9.2 °C 29.72in /  1006.3hPa WNW 0.2mph /  0.3km/h 11mph /  17.7km/h 76.5% 0.00in /  0mm 0 W/m2
01:29 55.6 °F /  13.1 °C 48.6 °F /  9.2 °C 29.72in /  1006.3hPa WNW 2.1mph /  3.4km/h 12mph /  19.3km/h 77% 0.00in /  0mm 0 W/m2
01:34 55.4 °F /  13 °C 48.5 °F /  9.2 °C 29.72in /  1006.3hPa NW 0.1mph /  0.2km/h 12mph /  19.3km/h 77.4% 0.00in /  0mm 0 W/m2
01:39 55.2 °F /  12.9 °C 48.6 °F /  9.2 °C 29.72in /  1006.3hPa NW 0.6mph /  1km/h 7mph /  11.3km/h 78.4% 0.00in /  0mm 0 W/m2
01:44 55 °F /  12.8 °C 48.3 °F /  9.1 °C 29.72in /  1006.3hPa WNW 1.3mph /  2.1km/h 7mph /  11.3km/h 78.1% 0.00in /  0mm 0 W/m2
01:49 54.8 °F /  12.7 °C 48.4 °F /  9.1 °C 29.73in /  1006.7hPa NW 0.1mph /  0.2km/h 7mph /  11.3km/h 79% 0.00in /  0mm 0 W/m2
01:54 54.6 °F /  12.6 °C 48.3 °F /  9.1 °C 29.73in /  1006.7hPa WNW 0.2mph /  0.3km/h 7mph /  11.3km/h 79.2% 0.00in /  0mm 0 W/m2
01:59 54.4 °F /  12.4 °C 48.4 °F /  9.1 °C 29.73in /  1006.7hPa WNW 0.1mph /  0.2km/h 7mph /  11.3km/h 79.8% 0.00in /  0mm 0 W/m2
02:04 54.2 °F /  12.3 °C 48.3 °F /  9.1 °C 29.72in /  1006.3hPa WNW 0.3mph /  0.5km/h 7mph /  11.3km/h 80.4% 0.00in /  0mm 0 W/m2
02:09 54 °F /  12.2 °C 48.3 °F /  9.1 °C 29.73in /  1006.7hPa WNW 1.1mph /  1.8km/h 10mph /  16.1km/h 80.9% 0.00in /  0mm 0 W/m2
02:14 53.8 °F /  12.1 °C 48.1 °F /  8.9 °C 29.72in /  1006.3hPa WNW 1.3mph /  2.1km/h 10mph /  16.1km/h 81% 0.00in /  0mm 0 W/m2
02:19 53.6 °F /  12 °C 47.9 °F /  8.8 °C 29.72in /  1006.3hPa WNW 0.5mph /  0.8km/h 10mph /  16.1km/h 81% 0.00in /  0mm 0 W/m2
02:24 53.4 °F /  11.9 °C 47.8 °F /  8.8 °C 29.73in /  1006.7hPa WNW 2.4mph /  3.9km/h 11mph /  17.7km/h 81% 0.00in /  0mm 0 W/m2
02:29 53.3 °F /  11.8 °C 47.8 °F /  8.8 °C 29.73in /  1006.7hPa WNW 0.5mph /  0.8km/h 11mph /  17.7km/h 81.6% 0.00in /  0mm 0 W/m2
02:34 53.2 °F /  11.8 °C 47.9 °F /  8.8 °C 29.72in /  1006.3hPa NW 0.2mph /  0.3km/h 11mph /  17.7km/h 82% 0.00in /  0mm 0 W/m2
02:39 53.1 °F /  11.7 °C 47.7 °F /  8.7 °C 29.72in /  1006.3hPa NW 0.5mph /  0.8km/h 7mph /  11.3km/h 82% 0.00in /  0mm 0 W/m2
02:44 53 °F /  11.7 °C 47.6 °F /  8.7 °C 29.72in /  1006.3hPa NW 0.9mph /  1.4km/h 7mph /  11.3km/h 82% 0.00in /  0mm 0 W/m2
02:49 52.8 °F /  11.6 °C 47.5 °F /  8.6 °C 29.72in /  1006.3hPa NW 0.6mph /  1km/h 7mph /  11.3km/h 82% 0.00in /  0mm 0 W/m2
02:54 52.7 °F /  11.5 °C 47.4 °F /  8.6 °C 29.73in /  1006.7hPa NW 0.4mph /  0.6km/h 7mph /  11.3km/h 82% 0.00in /  0mm 0 W/m2
02:59 52.6 °F /  11.4 °C 47.3 °F /  8.5 °C 29.72in /  1006.3hPa NW 1mph /  1.6km/h 7mph /  11.3km/h 82% 0.00in /  0mm 0 W/m2
03:04 52.5 °F /  11.4 °C 47.2 °F /  8.4 °C 29.72in /  1006.3hPa NW 1.5mph /  2.4km/h 10mph /  16.1km/h 82% 0.00in /  0mm 0 W/m2
03:09 52.4 °F /  11.3 °C 47.1 °F /  8.4 °C 29.72in /  1006.3hPa WNW 2.9mph /  4.7km/h 12mph /  19.3km/h 82% 0.00in /  0mm 0 W/m2
03:14 52.4 °F /  11.3 °C 47.1 °F /  8.4 °C 29.73in /  1006.7hPa WNW 2.6mph /  4.2km/h 12mph /  19.3km/h 82% 0.00in /  0mm 0 W/m2
03:19 52.3 °F /  11.3 °C 47 °F /  8.3 °C 29.73in /  1006.7hPa WNW 1.6mph /  2.6km/h 12mph /  19.3km/h 82% 0.00in /  0mm 0 W/m2
03:24 52.3 °F /  11.3 °C 46.9 °F /  8.3 °C 29.73in /  1006.7hPa WNW 0.6mph /  1km/h 12mph /  19.3km/h 82% 0.00in /  0mm 0 W/m2
03:29 52.2 °F /  11.2 °C 46.8 °F /  8.2 °C 29.73in /  1006.7hPa WNW 0.3mph /  0.5km/h 12mph /  19.3km/h 82% 0.00in /  0mm 0 W/m2
03:34 52 °F /  11.1 °C 46.8 °F /  8.2 °C 29.74in /  1007hPa WNW 1.5mph /  2.4km/h 12mph /  19.3km/h 82.1% 0.00in /  0mm 0 W/m2
03:39 51.9 °F /  11.1 °C 46.8 °F /  8.2 °C 29.74in /  1007hPa WNW 0.3mph /  0.5km/h 12mph /  19.3km/h 82.6% 0.00in /  0mm 0 W/m2
03:44 51.8 °F /  11 °C 46.5 °F /  8.1 °C 29.74in /  1007hPa WNW 0.4mph /  0.6km/h 12mph /  19.3km/h 82.3% 0.00in /  0mm 0 W/m2
03:49 51.6 °F /  10.9 °C 46.7 °F /  8.2 °C 29.74in /  1007hPa Calm   12mph /  19.3km/h 83% 0.00in /  0mm 0 W/m2
03:54 51.5 °F /  10.8 °C 46.5 °F /  8.1 °C 29.73in /  1006.7hPa WNW 1.8mph /  2.9km/h 12mph /  19.3km/h 83% 0.00in /  0mm 0 W/m2
03:59 51.3 °F /  10.7 °C 46.4 °F /  8 °C 29.73in /  1006.7hPa WNW 0.8mph /  1.3km/h 12mph /  19.3km/h 83% 0.00in /  0mm 0 W/m2
04:00 51.3 °F /  10.7 °C 46.3 °F /  7.9 °C 29.73in /  1006.7hPa Calm   12mph /  19.3km/h 83% 0.00in /  0mm 0 W/m2
04:09 51.1 °F /  10.6 °C 46.1 °F /  7.8 °C 29.73in /  1006.7hPa WNW 2.9mph /  4.7km/h 10mph /  16.1km/h 83% 0.00in /  0mm 0 W/m2
04:14 51 °F /  10.6 °C 46 °F /  7.8 °C 29.73in /  1006.7hPa WNW 3.2mph /  5.1km/h 12mph /  19.3km/h 83% 0.00in /  0mm 0 W/m2
04:19 51 °F /  10.6 °C 45.7 °F /  7.6 °C 29.73in /  1006.7hPa WNW 2.4mph /  3.9km/h 12mph /  19.3km/h 82% 0.00in /  0mm 0 W/m2
04:24 51 °F /  10.6 °C 45.7 °F /  7.6 °C 29.74in /  1007hPa WNW 2mph /  3.2km/h 14mph /  22.5km/h 82% 0.00in /  0mm 0 W/m2
04:29 51 °F /  10.6 °C 45.7 °F /  7.6 °C 29.74in /  1007hPa NW 1.8mph /  2.9km/h 14mph /  22.5km/h 82% 0.00in /  0mm 0 W/m2
04:34 50.9 °F /  10.5 °C 45.5 °F /  7.5 °C 29.74in /  1007hPa WNW 2.2mph /  3.5km/h 14mph /  22.5km/h 81.8% 0.00in /  0mm 0 W/m2
04:39 50.9 °F /  10.5 °C 45.3 °F /  7.4 °C 29.74in /  1007hPa WNW 1mph /  1.6km/h 11mph /  17.7km/h 81% 0.00in /  0mm 0 W/m2
04:44 50.8 °F /  10.4 °C 45.4 °F /  7.4 °C 29.75in /  1007.3hPa WNW 0.6mph /  1km/h 11mph /  17.7km/h 81.5% 0.00in /  0mm 0 W/m2
04:49 50.8 °F /  10.4 °C 45.2 °F /  7.3 °C 29.75in /  1007.3hPa WNW 0.5mph /  0.8km/h 11mph /  17.7km/h 81% 0.00in /  0mm 0 W/m2
04:54 50.7 °F /  10.4 °C 45.1 °F /  7.3 °C 29.75in /  1007.3hPa WNW 1.6mph /  2.6km/h 11mph /  17.7km/h 81% 0.00in /  0mm 0 W/m2
04:59 50.6 °F /  10.3 °C 45 °F /  7.2 °C 29.76in /  1007.7hPa WNW 1.3mph /  2.1km/h 11mph /  17.7km/h 81% 0.00in /  0mm 0 W/m2
05:04 50.6 °F /  10.3 °C 45 °F /  7.2 °C 29.76in /  1007.7hPa WNW 1mph /  1.6km/h 7mph /  11.3km/h 81% 0.00in /  0mm 0 W/m2
05:09 50.5 °F /  10.3 °C 44.7 °F /  7.1 °C 29.76in /  1007.7hPa WNW 3.2mph /  5.1km/h 12mph /  19.3km/h 80.5% 0.00in /  0mm 0 W/m2
05:14 50.5 °F /  10.3 °C 44.6 °F /  7 °C 29.76in /  1007.7hPa WNW 2mph /  3.2km/h 12mph /  19.3km/h 80% 0.00in /  0mm 0 W/m2
05:19 50.5 °F /  10.3 °C 44.5 °F /  6.9 °C 29.76in /  1007.7hPa WNW 3.4mph /  5.5km/h 14mph /  22.5km/h 79.8% 0.00in /  0mm 0 W/m2
05:24 50.5 °F /  10.3 °C 44.2 °F /  6.8 °C 29.76in /  1007.7hPa WNW 1.7mph /  2.7km/h 14mph /  22.5km/h 79% 0.00in /  0mm 0 W/m2
05:29 50.4 °F /  10.2 °C 44.2 °F /  6.8 °C 29.76in /  1007.7hPa NW 2.4mph /  3.9km/h 14mph /  22.5km/h 79% 0.00in /  0mm 0 W/m2
05:34 50.4 °F /  10.2 °C 44.1 °F /  6.7 °C 29.77in /  1008hPa NW 1.6mph /  2.6km/h 14mph /  22.5km/h 79% 0.00in /  0mm 0 W/m2
05:39 50.3 °F /  10.2 °C 44.1 °F /  6.7 °C 29.77in /  1008hPa NNW 0.1mph /  0.2km/h 11mph /  17.7km/h 79% 0.00in /  0mm 0 W/m2
05:44 50.2 °F /  10.1 °C 44 °F /  6.7 °C 29.77in /  1008hPa NW 0.6mph /  1km/h 11mph /  17.7km/h 79% 0.00in /  0mm 0 W/m2
05:49 50.1 °F /  10.1 °C 43.9 °F /  6.6 °C 29.77in /  1008hPa NNW 0.5mph /  0.8km/h 11mph /  17.7km/h 79% 0.00in /  0mm 0 W/m2
05:54 50 °F /  10 °C 43.8 °F /  6.6 °C 29.77in /  1008hPa NNW 1.1mph /  1.8km/h 11mph /  17.7km/h 79% 0.00in /  0mm 0 W/m2
05:59 49.9 °F /  9.9 °C 43.7 °F /  6.5 °C 29.77in /  1008hPa WNW 1.1mph /  1.8km/h 11mph /  17.7km/h 79% 0.00in /  0mm 0 W/m2
06:04 49.8 °F /  9.9 °C 43.6 °F /  6.4 °C 29.77in /  1008hPa WNW 2mph /  3.2km/h 11mph /  17.7km/h 79% 0.00in /  0mm 0 W/m2
06:09 49.7 °F /  9.8 °C 43.5 °F /  6.4 °C 29.78in /  1008.4hPa NW 1.8mph /  2.9km/h 10mph /  16.1km/h 79% 0.00in /  0mm 0 W/m2
06:14 49.7 °F /  9.8 °C 43.5 °F /  6.4 °C 29.78in /  1008.4hPa NW 3.2mph /  5.1km/h 14mph /  22.5km/h 79% 0.00in /  0mm 0 W/m2
06:19 49.7 °F /  9.8 °C 43.2 °F /  6.2 °C 29.78in /  1008.4hPa NNW 0.7mph /  1.1km/h 14mph /  22.5km/h 78.1% 0.00in /  0mm 0 W/m2
06:24 49.7 °F /  9.8 °C 43.3 °F /  6.3 °C 29.78in /  1008.4hPa WNW 3.1mph /  5km/h 14mph /  22.5km/h 78.5% 0.00in /  0mm 0 W/m2
06:29 49.7 °F /  9.8 °C 43.1 °F /  6.2 °C 29.78in /  1008.4hPa NW 3.5mph /  5.6km/h 15mph /  24.1km/h 78% 0.00in /  0mm 0 W/m2
06:34 49.7 °F /  9.8 °C 43.1 °F /  6.2 °C 29.78in /  1008.4hPa NW 3.4mph /  5.5km/h 15mph /  24.1km/h 78% 0.00in /  0mm 0 W/m2
06:39 49.7 °F /  9.8 °C 42.9 °F /  6.1 °C 29.79in /  1008.7hPa NW 3.3mph /  5.3km/h 16mph /  25.7km/h 77.4% 0.00in /  0mm 0 W/m2
06:44 49.7 °F /  9.8 °C 42.8 °F /  6 °C 29.80in /  1009hPa NNW 0.8mph /  1.3km/h 16mph /  25.7km/h 77% 0.00in /  0mm 5 W/m2
06:49 49.7 °F /  9.8 °C 42.8 °F /  6 °C 29.80in /  1009hPa NW 1.1mph /  1.8km/h 16mph /  25.7km/h 77.3% 0.00in /  0mm 7 W/m2
06:54 49.6 °F /  9.8 °C 42.7 °F /  5.9 °C 29.80in /  1009hPa NW 2.2mph /  3.5km/h 16mph /  25.7km/h 77% 0.00in /  0mm 11 W/m2
06:59 49.6 °F /  9.8 °C 42.7 °F /  5.9 °C 29.81in /  1009.4hPa NW 4.8mph /  7.7km/h 16mph /  25.7km/h 77% 0.00in /  0mm 21 W/m2
07:04 49.7 °F /  9.8 °C 42.7 °F /  5.9 °C 29.81in /  1009.4hPa NW 2.5mph /  4km/h 16mph /  25.7km/h 77% 0.00in /  0mm 23 W/m2
07:09 49.8 °F /  9.9 °C 42.8 °F /  6 °C 29.81in /  1009.4hPa NW 2.5mph /  4km/h 14mph /  22.5km/h 77% 0.00in /  0mm 25 W/m2
07:14 49.9 °F /  9.9 °C 42.9 °F /  6.1 °C 29.81in /  1009.4hPa NW 2.6mph /  4.2km/h 14mph /  22.5km/h 76.9% 0.00in /  0mm 37 W/m2
07:19 50 °F /  10 °C 42.8 °F /  6 °C 29.81in /  1009.4hPa NNW 2.3mph /  3.7km/h 14mph /  22.5km/h 76.2% 0.00in /  0mm 51 W/m2
07:24 50.1 °F /  10.1 °C 43 °F /  6.1 °C 29.82in /  1009.7hPa NW 2mph /  3.2km/h 14mph /  22.5km/h 76.3% 0.00in /  0mm 51 W/m2
07:29 50.2 °F /  10.1 °C 42.7 °F /  5.9 °C 29.82in /  1009.7hPa NNW 2.4mph /  3.9km/h 14mph /  22.5km/h 75.3% 0.00in /  0mm 42 W/m2
07:34 50.3 °F /  10.2 °C 42.7 °F /  5.9 °C 29.82in /  1009.7hPa WNW 2.8mph /  4.5km/h 14mph /  22.5km/h 75% 0.00in /  0mm 53 W/m2
07:39 50.4 °F /  10.2 °C 42.8 °F /  6 °C 29.82in /  1009.7hPa WNW 3.1mph /  5km/h 19mph /  30.6km/h 75% 0.00in /  0mm 51 W/m2
07:44 50.4 °F /  10.2 °C 42.8 °F /  6 °C 29.82in /  1009.7hPa WNW 1.9mph /  3.1km/h 19mph /  30.6km/h 75% 0.00in /  0mm 56 W/m2
07:49 50.5 °F /  10.3 °C 42.9 °F /  6.1 °C 29.82in /  1009.7hPa WNW 3.4mph /  5.5km/h 19mph /  30.6km/h 75% 0.00in /  0mm 62 W/m2
07:54 50.5 °F /  10.3 °C 42.9 °F /  6.1 °C 29.82in /  1009.7hPa NW 0.8mph /  1.3km/h 19mph /  30.6km/h 75% 0.00in /  0mm 74 W/m2
07:59 50.6 °F /  10.3 °C 43 °F /  6.1 °C 29.82in /  1009.7hPa NW 2.2mph /  3.5km/h 19mph /  30.6km/h 75% 0.00in /  0mm 84 W/m2
08:00 50.6 °F /  10.3 °C 43 °F /  6.1 °C 29.82in /  1009.7hPa Calm   19mph /  30.6km/h 75% 0.00in /  0mm 63 W/m2
08:09 50.7 °F /  10.4 °C 43.1 °F /  6.2 °C 29.82in /  1009.7hPa WNW 0.9mph /  1.4km/h 6mph /  9.7km/h 75% 0.00in /  0mm 60 W/m2
08:14 50.8 °F /  10.4 °C 43.1 °F /  6.2 °C 29.82in /  1009.7hPa NW 2.7mph /  4.3km/h 13mph /  20.9km/h 74.9% 0.00in /  0mm 74 W/m2
08:19 50.9 °F /  10.5 °C 42.9 °F /  6.1 °C 29.82in /  1009.7hPa WNW 1.8mph /  2.9km/h 13mph /  20.9km/h 74% 0.00in /  0mm 77 W/m2
08:24 50.9 °F /  10.5 °C 43 °F /  6.1 °C 29.82in /  1009.7hPa NW 2.9mph /  4.7km/h 13mph /  20.9km/h 74.2% 0.00in /  0mm 130 W/m2
08:29 51.1 °F /  10.6 °C 43.1 °F /  6.2 °C 29.82in /  1009.7hPa NW 1.6mph /  2.6km/h 13mph /  20.9km/h 74% 0.00in /  0mm 128 W/m2
08:34 51.3 °F /  10.7 °C 43.6 °F /  6.4 °C 29.82in /  1009.7hPa NW 2.6mph /  4.2km/h 13mph /  20.9km/h 74.8% 0.00in /  0mm 123 W/m2
08:39 51.5 °F /  10.8 °C 43.3 °F /  6.3 °C 29.82in /  1009.7hPa NW 1.2mph /  1.9km/h 11mph /  17.7km/h 73.5% 0.00in /  0mm 207 W/m2
08:44 51.8 °F /  11 °C 43.5 °F /  6.4 °C 29.83in /  1010hPa NW 3.8mph /  6.1km/h 13mph /  20.9km/h 73.2% 0.00in /  0mm 214 W/m2
08:49 52.1 °F /  11.2 °C 43.5 °F /  6.4 °C 29.83in /  1010hPa NW 1.7mph /  2.7km/h 13mph /  20.9km/h 72.4% 0.00in /  0mm 160 W/m2
08:54 52.3 °F /  11.3 °C 43.5 °F /  6.4 °C 29.82in /  1009.7hPa NW 3.2mph /  5.1km/h 19mph /  30.6km/h 71.9% 0.00in /  0mm 251 W/m2
08:59 52.4 °F /  11.3 °C 43.6 °F /  6.4 °C 29.83in /  1010hPa NW 4.8mph /  7.7km/h 19mph /  30.6km/h 71.8% 0.00in /  0mm 262 W/m2
09:04 52.6 °F /  11.4 °C 43.6 °F /  6.4 °C 29.83in /  1010hPa NW 5mph /  8km/h 19mph /  30.6km/h 71.1% 0.00in /  0mm 262 W/m2
09:09 53.2 °F /  11.8 °C 43.8 °F /  6.6 °C 29.83in /  1010hPa NW 3.1mph /  5km/h 17mph /  27.4km/h 70.4% 0.00in /  0mm 592 W/m2
09:14 54.1 °F /  12.3 °C 44.6 °F /  7 °C 29.83in /  1010hPa WNW 2.1mph /  3.4km/h 17mph /  27.4km/h 70.3% 0.00in /  0mm 531 W/m2
09:19 55 °F /  12.8 °C 44.9 °F /  7.2 °C 29.83in /  1010hPa NW 3mph /  4.8km/h 17mph /  27.4km/h 68.7% 0.00in /  0mm 628 W/m2
09:24 55.8 °F /  13.2 °C 45.3 °F /  7.4 °C 29.83in /  1010hPa NNW 2mph /  3.2km/h 17mph /  27.4km/h 67.7% 0.00in /  0mm 682 W/m2
09:29 56.5 °F /  13.6 °C 45.7 °F /  7.6 °C 29.83in /  1010hPa WNW 3.5mph /  5.6km/h 17mph /  27.4km/h 66.9% 0.00in /  0mm 635 W/m2
09:34 57.1 °F /  13.9 °C 45.7 °F /  7.6 °C 29.83in /  1010hPa NW 2.4mph /  3.9km/h 17mph /  27.4km/h 65.7% 0.00in /  0mm 689 W/m2
09:39 57.7 °F /  14.3 °C 46.2 °F /  7.9 °C 29.83in /  1010hPa NW 3.4mph /  5.5km/h 17mph /  27.4km/h 65.4% 0.00in /  0mm 608 W/m2
09:44 58.1 °F /  14.5 °C 46.4 °F /  8 °C 29.83in /  1010hPa WNW 2.3mph /  3.7km/h 17mph /  27.4km/h 65% 0.00in /  0mm 613 W/m2
09:49 58.4 °F /  14.7 °C 46.4 °F /  8 °C 29.83in /  1010hPa NNW 1.6mph /  2.6km/h 17mph /  27.4km/h 64.2% 0.00in /  0mm 666 W/m2
09:54 58.9 °F /  14.9 °C 46.5 °F /  8.1 °C 29.83in /  1010hPa WNW 2.4mph /  3.9km/h 17mph /  27.4km/h 63.4% 0.00in /  0mm 657 W/m2
09:59 59.5 °F /  15.3 °C 47 °F /  8.3 °C 29.82in /  1009.7hPa NW 0.9mph /  1.4km/h 17mph /  27.4km/h 63.3% 0.00in /  0mm 663 W/m2
10:04 59.9 °F /  15.5 °C 46.7 °F /  8.2 °C 29.83in /  1010hPa WNW 4.3mph /  6.9km/h 17mph /  27.4km/h 61.8% 0.00in /  0mm 698 W/m2
10:09 59.8 °F /  15.4 °C 46.2 °F /  7.9 °C 29.83in /  1010hPa NW 2.2mph /  3.5km/h 14mph /  22.5km/h 60.8% 0.00in /  0mm 710 W/m2
10:14 59.7 °F /  15.4 °C 46.8 °F /  8.2 °C 29.83in /  1010hPa NW 2mph /  3.2km/h 16mph /  25.7km/h 62.5% 0.00in /  0mm 707 W/m2
10:19 59.7 °F /  15.4 °C 46.3 °F /  7.9 °C 29.83in /  1010hPa NW 4.5mph /  7.2km/h 16mph /  25.7km/h 61.1% 0.00in /  0mm 707 W/m2
10:24 59.6 °F /  15.3 °C 46.4 °F /  8 °C 29.82in /  1009.7hPa WNW 3.2mph /  5.1km/h 16mph /  25.7km/h 61.6% 0.00in /  0mm 675 W/m2
10:29 59.6 °F /  15.3 °C 46.5 °F /  8.1 °C 29.83in /  1010hPa WNW 3.7mph /  6km/h 16mph /  25.7km/h 61.7% 0.00in /  0mm 691 W/m2
10:34 59.9 °F /  15.5 °C 46.5 °F /  8.1 °C 29.83in /  1010hPa NW 1.7mph /  2.7km/h 16mph /  25.7km/h 61.2% 0.00in /  0mm 694 W/m2
10:39 60.2 °F /  15.7 °C 46.6 °F /  8.1 °C 29.83in /  1010hPa NW 4.3mph /  6.9km/h 15mph /  24.1km/h 60.6% 0.00in /  0mm 795 W/m2
10:44 60.5 °F /  15.8 °C 47 °F /  8.3 °C 29.83in /  1010hPa NW 1.5mph /  2.4km/h 15mph /  24.1km/h 61.2% 0.00in /  0mm 796 W/m2
10:49 60.7 °F /  15.9 °C 46.2 °F /  7.9 °C 29.83in /  1010hPa NW 3.7mph /  6km/h 15mph /  24.1km/h 58.7% 0.00in /  0mm 756 W/m2
10:54 60.6 °F /  15.9 °C 45.4 °F /  7.4 °C 29.83in /  1010hPa NW 4.6mph /  7.4km/h 17mph /  27.4km/h 57.3% 0.00in /  0mm 766 W/m2
10:59 60.4 °F /  15.8 °C 45.5 °F /  7.5 °C 29.82in /  1009.7hPa NW 6.3mph /  10.1km/h 19mph /  30.6km/h 57.8% 0.00in /  0mm 735 W/m2
11:04 60.2 °F /  15.7 °C 45.1 °F /  7.3 °C 29.82in /  1009.7hPa NW 4.3mph /  6.9km/h 19mph /  30.6km/h 57.3% 0.00in /  0mm 742 W/m2
11:09 60 °F /  15.6 °C 45.1 °F /  7.3 °C 29.82in /  1009.7hPa NW 6mph /  9.7km/h 20mph /  32.2km/h 57.7% 0.00in /  0mm 766 W/m2
11:14 59.9 °F /  15.5 °C 45.1 °F /  7.3 °C 29.82in /  1009.7hPa NW 4.7mph /  7.6km/h 20mph /  32.2km/h 58% 0.00in /  0mm 770 W/m2
11:19 60 °F /  15.6 °C 45.1 °F /  7.3 °C 29.83in /  1010hPa NW 6.2mph /  10km/h 20mph /  32.2km/h 57.7% 0.00in /  0mm 763 W/m2
11:24 60 °F /  15.6 °C 44.9 °F /  7.2 °C 29.83in /  1010hPa NW 5.8mph /  9.3km/h 20mph /  32.2km/h 57.2% 0.00in /  0mm 770 W/m2
11:29 60 °F /  15.6 °C 45.1 °F /  7.3 °C 29.83in /  1010hPa NW 4.4mph /  7.1km/h 20mph /  32.2km/h 57.8% 0.00in /  0mm 770 W/m2
11:34 60 °F /  15.6 °C 44.9 °F /  7.2 °C 29.83in /  1010hPa WNW 5.1mph /  8.2km/h 20mph /  32.2km/h 57.3% 0.00in /  0mm 650 W/m2
11:39 59.8 °F /  15.4 °C 45.4 °F /  7.4 °C 29.83in /  1010hPa WNW 6.4mph /  10.3km/h 18mph /  29km/h 59% 0.00in /  0mm 304 W/m2
11:44 59.2 °F /  15.1 °C 44.4 °F /  6.9 °C 29.83in /  1010hPa WNW 5.8mph /  9.3km/h 18mph /  29km/h 57.8% 0.00in /  0mm 179 W/m2
11:49 58.8 °F /  14.9 °C 44.3 °F /  6.8 °C 29.83in /  1010hPa WNW 7.2mph /  11.6km/h 18mph /  29km/h 58.5% 0.00in /  0mm 146 W/m2
11:54 58.6 °F /  14.8 °C 44.5 °F /  6.9 °C 29.83in /  1010hPa NW 2.6mph /  4.2km/h 18mph /  29km/h 59.5% 0.00in /  0mm 135 W/m2
11:59 58.7 °F /  14.8 °C 44.4 °F /  6.9 °C 29.83in /  1010hPa NW 6.2mph /  10km/h 18mph /  29km/h 59.1% 0.00in /  0mm 104 W/m2
12:00 58.7 °F /  14.8 °C 43.1 °F /  6.2 °C 29.83in /  1010hPa Calm   18mph /  29km/h 56% 0.00in /  0mm 51 W/m2
12:09 58.3 °F /  14.6 °C 42.9 °F /  6.1 °C 29.83in /  1010hPa NW 5.3mph /  8.5km/h 17mph /  27.4km/h 56.4% 0.00in /  0mm 86 W/m2
12:14 58.1 °F /  14.5 °C 42.6 °F /  5.9 °C 29.83in /  1010hPa NW 6.2mph /  10km/h 20mph /  32.2km/h 56.1% 0.00in /  0mm 181 W/m2
12:19 58.1 °F /  14.5 °C 42.3 °F /  5.7 °C 29.83in /  1010hPa NW 5mph /  8km/h 20mph /  32.2km/h 55.7% 0.00in /  0mm 148 W/m2
12:24 58.1 °F /  14.5 °C 42.6 °F /  5.9 °C 29.82in /  1009.7hPa NW 6.8mph /  10.9km/h 20mph /  32.2km/h 56.1% 0.00in /  0mm 410 W/m2
12:29 58.4 °F /  14.7 °C 43.8 °F /  6.6 °C 29.82in /  1009.7hPa NW 2.1mph /  3.4km/h 20mph /  32.2km/h 58.3% 0.00in /  0mm 287 W/m2
12:34 58.8 °F /  14.9 °C 43 °F /  6.1 °C 29.82in /  1009.7hPa NNW 6mph /  9.7km/h 20mph /  32.2km/h 55.7% 0.00in /  0mm 287 W/m2
12:39 59.1 °F /  15.1 °C 42.9 °F /  6.1 °C 29.82in /  1009.7hPa WNW 4.9mph /  7.9km/h 20mph /  32.2km/h 54.8% 0.00in /  0mm 91 W/m2
12:44 59.1 °F /  15.1 °C 42.2 °F /  5.7 °C 29.82in /  1009.7hPa NW 7.8mph /  12.6km/h 20mph /  32.2km/h 53.3% 0.00in /  0mm 53 W/m2
12:49 58.9 °F /  14.9 °C 42.5 °F /  5.8 °C 29.82in /  1009.7hPa NW 2.8mph /  4.5km/h 20mph /  32.2km/h 54.3% 0.00in /  0mm 56 W/m2
12:54 58.9 °F /  14.9 °C 42 °F /  5.6 °C 29.82in /  1009.7hPa NW 7mph /  11.3km/h 20mph /  32.2km/h 53.4% 0.00in /  0mm 146 W/m2
12:59 58.9 °F /  14.9 °C 42 °F /  5.6 °C 29.82in /  1009.7hPa NW 3mph /  4.8km/h 20mph /  32.2km/h 53.2% 0.00in /  0mm 243 W/m2
13:04 59.1 °F /  15.1 °C 42.4 °F /  5.8 °C 29.82in /  1009.7hPa NW 4.3mph /  6.9km/h 20mph /  32.2km/h 53.9% 0.00in /  0mm 663 W/m2
13:09 59.3 °F /  15.2 °C 42.6 °F /  5.9 °C 29.82in /  1009.7hPa NW 4mph /  6.4km/h 15mph /  24.1km/h 53.8% 0.00in /  0mm 79 W/m2
13:14 59.4 °F /  15.2 °C 42.7 °F /  5.9 °C 29.81in /  1009.4hPa NW 3.8mph /  6.1km/h 15mph /  24.1km/h 53.9% 0.00in /  0mm 135 W/m2
13:19 59.6 °F /  15.3 °C 43 °F /  6.1 °C 29.81in /  1009.4hPa NW 1.8mph /  2.9km/h 15mph /  24.1km/h 54.2% 0.00in /  0mm 67 W/m2
13:24 59.7 °F /  15.4 °C 42.6 °F /  5.9 °C 29.81in /  1009.4hPa NW 4.6mph /  7.4km/h 18mph /  29km/h 52.9% 0.00in /  0mm 111 W/m2
13:29 59.8 °F /  15.4 °C 41.7 °F /  5.4 °C 29.81in /  1009.4hPa NW 7.2mph /  11.6km/h 18mph /  29km/h 51.1% 0.00in /  0mm 65 W/m2
13:34 59.9 °F /  15.5 °C 41.9 °F /  5.5 °C 29.81in /  1009.4hPa WNW 5mph /  8km/h 18mph /  29km/h 51.1% 0.00in /  0mm 42 W/m2
13:39 60.1 °F /  15.6 °C 43 °F /  6.1 °C 29.81in /  1009.4hPa NW 3mph /  4.8km/h 16mph /  25.7km/h 53.1% 0.00in /  0mm 65 W/m2
13:44 60.3 °F /  15.7 °C 42.1 °F /  5.6 °C 29.81in /  1009.4hPa WNW 4.3mph /  6.9km/h 16mph /  25.7km/h 51% 0.00in /  0mm 60 W/m2
13:49 60.4 °F /  15.8 °C 41.8 °F /  5.4 °C 29.81in /  1009.4hPa NW 6.1mph /  9.8km/h 17mph /  27.4km/h 50.2% 0.00in /  0mm 42 W/m2
14:00 60.6 °F /  15.9 °C 41.4 °F /  5.2 °C 29.81in /  1009.4hPa NW 4mph /  6.4km/h 19mph /  30.6km/h 49% 0.00in /  0mm 47 W/m2
14:30 60.5 °F /  15.8 °C 41.3 °F /  5.2 °C 29.81in /  1009.4hPa WNW 5mph /  8km/h 22mph /  35.4km/h 49% 0.00in /  0mm 43 W/m2
15:00 60.3 °F /  15.7 °C 42.6 °F /  5.9 °C 29.81in /  1009.4hPa WNW 6mph /  9.7km/h 24mph /  38.6km/h 52% 0.00in /  0mm 67 W/m2
15:30 60 °F /  15.6 °C 41.3 °F /  5.2 °C 29.81in /  1009.4hPa NW 7mph /  11.3km/h 22mph /  35.4km/h 50% 0.00in /  0mm 141 W/m2
16:04 60.1 °F /  15.6 °C 40.9 °F /  4.9 °C 29.81in /  1009.4hPa WNW 4.5mph /  7.2km/h 13mph /  20.9km/h 49% 0.00in /  0mm 77 W/m2
16:09 60.2 °F /  15.7 °C 41.4 °F /  5.2 °C 29.82in /  1009.7hPa WNW 3.1mph /  5km/h 14mph /  22.5km/h 49.9% 0.00in /  0mm 77 W/m2
16:14 60.2 °F /  15.7 °C 41.4 °F /  5.2 °C 29.82in /  1009.7hPa NW 6.9mph /  11.1km/h 18mph /  29km/h 49.7% 0.00in /  0mm 113 W/m2
16:19 60.1 °F /  15.6 °C 41.5 °F /  5.3 °C 29.82in /  1009.7hPa NW 4.4mph /  7.1km/h 18mph /  29km/h 50.1% 0.00in /  0mm 104 W/m2
16:24 60.1 °F /  15.6 °C 42.1 °F /  5.6 °C 29.82in /  1009.7hPa WNW 3.2mph /  5.1km/h 19mph /  30.6km/h 51.3% 0.00in /  0mm 42 W/m2
16:29 60.1 °F /  15.6 °C 42.2 °F /  5.7 °C 29.82in /  1009.7hPa WNW 5.2mph /  8.4km/h 19mph /  30.6km/h 51.6% 0.00in /  0mm 47 W/m2
16:34 60.1 °F /  15.6 °C 42.3 °F /  5.7 °C 29.82in /  1009.7hPa WNW 3.2mph /  5.1km/h 19mph /  30.6km/h 51.9% 0.00in /  0mm 42 W/m2
16:39 59.9 °F /  15.5 °C 42.1 °F /  5.6 °C 29.82in /  1009.7hPa NW 6.4mph /  10.3km/h 16mph /  25.7km/h 51.7% 0.00in /  0mm 46 W/m2
16:44 59.7 °F /  15.4 °C 41.3 °F /  5.2 °C 29.82in /  1009.7hPa NW 5.8mph /  9.3km/h 16mph /  25.7km/h 50.3% 0.00in /  0mm 40 W/m2
16:49 59.5 °F /  15.3 °C 41.2 °F /  5.1 °C 29.82in /  1009.7hPa NW 6.6mph /  10.6km/h 19mph /  30.6km/h 50.5% 0.00in /  0mm 40 W/m2
16:54 59.3 °F /  15.2 °C 40.7 °F /  4.8 °C 29.82in /  1009.7hPa NW 5.5mph /  8.9km/h 19mph /  30.6km/h 49.9% 0.00in /  0mm 44 W/m2
16:59 59.2 °F /  15.1 °C 41.4 °F /  5.2 °C 29.82in /  1009.7hPa NW 4mph /  6.4km/h 19mph /  30.6km/h 51.4% 0.00in /  0mm 30 W/m2
17:04 59.3 °F /  15.2 °C 41.9 °F /  5.5 °C 29.82in /  1009.7hPa WNW 2.9mph /  4.7km/h 19mph /  30.6km/h 52.5% 0.00in /  0mm 30 W/m2
17:09 59.2 °F /  15.1 °C 42.1 °F /  5.6 °C 29.82in /  1009.7hPa WNW 2.3mph /  3.7km/h 13mph /  20.9km/h 53.1% 0.00in /  0mm 30 W/m2
17:14 59.2 °F /  15.1 °C 42 °F /  5.6 °C 29.82in /  1009.7hPa NW 4.5mph /  7.2km/h 17mph /  27.4km/h 52.8% 0.00in /  0mm 30 W/m2
17:19 59.1 °F /  15.1 °C 41.5 °F /  5.3 °C 29.82in /  1009.7hPa NW 4.5mph /  7.2km/h 17mph /  27.4km/h 52% 0.00in /  0mm 26 W/m2
17:24 58.9 °F /  14.9 °C 41.4 °F /  5.2 °C 29.82in /  1009.7hPa NW 4.3mph /  6.9km/h 17mph /  27.4km/h 52.3% 0.00in /  0mm 26 W/m2
17:29 58.7 °F /  14.8 °C 41.4 °F /  5.2 °C 29.82in /  1009.7hPa WNW 4.5mph /  7.2km/h 17mph /  27.4km/h 52.6% 0.00in /  0mm 25 W/m2
17:34 58.5 °F /  14.7 °C 41 °F /  5 °C 29.82in /  1009.7hPa NW 4.6mph /  7.4km/h 17mph /  27.4km/h 52.1% 0.00in /  0mm 25 W/m2
17:39 58.3 °F /  14.6 °C 41 °F /  5 °C 29.83in /  1010hPa NW 4.3mph /  6.9km/h 18mph /  29km/h 52.5% 0.00in /  0mm 25 W/m2
17:44 58 °F /  14.4 °C 41 °F /  5 °C 29.83in /  1010hPa NW 4.7mph /  7.6km/h 18mph /  29km/h 53% 0.00in /  0mm 23 W/m2
17:49 57.8 °F /  14.3 °C 41.4 °F /  5.2 °C 29.83in /  1010hPa WNW 2.8mph /  4.5km/h 18mph /  29km/h 54.2% 0.00in /  0mm 21 W/m2
17:54 57.6 °F /  14.2 °C 41.5 °F /  5.3 °C 29.83in /  1010hPa WNW 3.4mph /  5.5km/h 18mph /  29km/h 54.8% 0.00in /  0mm 21 W/m2
17:59 57.4 °F /  14.1 °C 41.4 °F /  5.2 °C 29.83in /  1010hPa WNW 3.5mph /  5.6km/h 18mph /  29km/h 55.1% 0.00in /  0mm 19 W/m2
18:04 57.2 °F /  14 °C 41.2 °F /  5.1 °C 29.83in /  1010hPa NW 5mph /  8km/h 18mph /  29km/h 55% 0.00in /  0mm 18 W/m2
18:09 56.9 °F /  13.8 °C 41 °F /  5 °C 29.84in /  1010.4hPa NW 4mph /  6.4km/h 14mph /  22.5km/h 55.1% 0.00in /  0mm 16 W/m2
18:14 56.7 °F /  13.7 °C 41.1 °F /  5.1 °C 29.84in /  1010.4hPa WNW 4.6mph /  7.4km/h 16mph /  25.7km/h 55.8% 0.00in /  0mm 14 W/m2
18:19 56.4 °F /  13.6 °C 40.9 °F /  4.9 °C 29.84in /  1010.4hPa WNW 3.6mph /  5.8km/h 16mph /  25.7km/h 55.9% 0.00in /  0mm 12 W/m2
18:24 56.2 °F /  13.4 °C 40.7 °F /  4.8 °C 29.84in /  1010.4hPa WNW 7.1mph /  11.4km/h 17mph /  27.4km/h 56% 0.00in /  0mm 11 W/m2
18:29 55.9 °F /  13.3 °C 40.4 °F /  4.7 °C 29.84in /  1010.4hPa WNW 5mph /  8km/h 17mph /  27.4km/h 56% 0.00in /  0mm 9 W/m2
18:34 55.6 °F /  13.1 °C 40.4 °F /  4.7 °C 29.84in /  1010.4hPa NW 3.3mph /  5.3km/h 17mph /  27.4km/h 56.3% 0.00in /  0mm 7 W/m2
18:39 55.4 °F /  13 °C 40.2 °F /  4.6 °C 29.84in /  1010.4hPa NW 4.9mph /  7.9km/h 17mph /  27.4km/h 56.5% 0.00in /  0mm 5 W/m2
18:44 55.1 °F /  12.8 °C 39.8 °F /  4.3 °C 29.84in /  1010.4hPa NW 4.9mph /  7.9km/h 17mph /  27.4km/h 56.2% 0.00in /  0mm 0 W/m2
18:49 54.9 °F /  12.7 °C 39.8 °F /  4.3 °C 29.84in /  1010.4hPa WNW 4.5mph /  7.2km/h 17mph /  27.4km/h 56.6% 0.00in /  0mm 0 W/m2
18:54 54.7 °F /  12.6 °C 39.8 °F /  4.3 °C 29.85in /  1010.7hPa WNW 2.7mph /  4.3km/h 17mph /  27.4km/h 57% 0.00in /  0mm 0 W/m2
18:59 54.5 °F /  12.5 °C 39.7 °F /  4.3 °C 29.85in /  1010.7hPa NW 3.3mph /  5.3km/h 17mph /  27.4km/h 57.3% 0.00in /  0mm 0 W/m2
19:04 54.2 °F /  12.3 °C 39.4 °F /  4.1 °C 29.85in /  1010.7hPa NW 6.3mph /  10.1km/h 18mph /  29km/h 57.1% 0.00in /  0mm 0 W/m2
19:09 54.1 °F /  12.3 °C 39.3 °F /  4.1 °C 29.85in /  1010.7hPa WNW 4.2mph /  6.8km/h 18mph /  29km/h 57.1% 0.00in /  0mm 0 W/m2
19:14 54 °F /  12.2 °C 39.5 °F /  4.2 °C 29.86in /  1011.1hPa NW 2mph /  3.2km/h 18mph /  29km/h 58% 0.00in /  0mm 0 W/m2
19:19 53.8 °F /  12.1 °C 39.4 °F /  4.1 °C 29.86in /  1011.1hPa WNW 3mph /  4.8km/h 18mph /  29km/h 58% 0.00in /  0mm 0 W/m2
19:24 53.6 °F /  12 °C 39.3 °F /  4.1 °C 29.86in /  1011.1hPa NW 3.9mph /  6.3km/h 18mph /  29km/h 58.2% 0.00in /  0mm 0 W/m2
19:29 53.4 °F /  11.9 °C 39 °F /  3.9 °C 29.86in /  1011.1hPa NW 4.6mph /  7.4km/h 18mph /  29km/h 58% 0.00in /  0mm 0 W/m2
19:34 53.3 °F /  11.8 °C 39 °F /  3.9 °C 29.86in /  1011.1hPa NW 1mph /  1.6km/h 18mph /  29km/h 58.3% 0.00in /  0mm 0 W/m2
19:39 53.2 °F /  11.8 °C 39 °F /  3.9 °C 29.87in /  1011.4hPa NNW 2.3mph /  3.7km/h 11mph /  17.7km/h 58.3% 0.00in /  0mm 0 W/m2
19:44 53.1 °F /  11.7 °C 39 °F /  3.9 °C 29.87in /  1011.4hPa North 0.7mph /  1.1km/h 11mph /  17.7km/h 58.7% 0.00in /  0mm 0 W/m2
19:49 52.9 °F /  11.6 °C 39.1 °F /  3.9 °C 29.87in /  1011.4hPa NW 2mph /  3.2km/h 11mph /  17.7km/h 59.3% 0.00in /  0mm 0 W/m2
19:54 52.7 °F /  11.5 °C 38.9 °F /  3.8 °C 29.87in /  1011.4hPa NW 3.4mph /  5.5km/h 13mph /  20.9km/h 59.1% 0.00in /  0mm 0 W/m2
19:59 52.6 °F /  11.4 °C 38.9 °F /  3.8 °C 29.87in /  1011.4hPa NNW 0.4mph /  0.6km/h 13mph /  20.9km/h 59.4% 0.00in /  0mm 0 W/m2
20:04 52.5 °F /  11.4 °C 39 °F /  3.9 °C 29.88in /  1011.7hPa NW 0.5mph /  0.8km/h 1mph /  1.6km/h 60% 0.00in /  0mm 0 W/m2
20:09 52.4 °F /  11.3 °C 38.9 °F /  3.8 °C 29.88in /  1011.7hPa NW 0.9mph /  1.4km/h 7mph /  11.3km/h 59.8% 0.00in /  0mm 0 W/m2
20:14 52.4 °F /  11.3 °C 38.9 °F /  3.8 °C 29.88in /  1011.7hPa NNW 1mph /  1.6km/h 9mph /  14.5km/h 60% 0.00in /  0mm 0 W/m2
20:19 52.3 °F /  11.3 °C 38.8 °F /  3.8 °C 29.88in /  1011.7hPa NW 2.7mph /  4.3km/h 12mph /  19.3km/h 60% 0.00in /  0mm 0 W/m2
20:24 52.2 °F /  11.2 °C 38.7 °F /  3.7 °C 29.88in /  1011.7hPa NNW 1.4mph /  2.3km/h 12mph /  19.3km/h 60% 0.00in /  0mm 0 W/m2
20:29 52.1 °F /  11.2 °C 38.7 °F /  3.7 °C 29.88in /  1011.7hPa NW 1.9mph /  3.1km/h 18mph /  29km/h 60% 0.00in /  0mm 0 W/m2
20:34 52 °F /  11.1 °C 38.6 °F /  3.7 °C 29.87in /  1011.4hPa NW 1.1mph /  1.8km/h 18mph /  29km/h 60% 0.00in /  0mm 0 W/m2
20:39 51.9 °F /  11.1 °C 38.7 °F /  3.7 °C 29.88in /  1011.7hPa WNW 2.7mph /  4.3km/h 14mph /  22.5km/h 60.5% 0.00in /  0mm 0 W/m2
20:44 51.8 °F /  11 °C 38.8 °F /  3.8 °C 29.88in /  1011.7hPa WNW 0.8mph /  1.3km/h 14mph /  22.5km/h 60.8% 0.00in /  0mm 0 W/m2
20:49 51.7 °F /  10.9 °C 38.7 °F /  3.7 °C 29.88in /  1011.7hPa WNW 1.9mph /  3.1km/h 14mph /  22.5km/h 61% 0.00in /  0mm 0 W/m2
20:54 51.7 °F /  10.9 °C 38.7 °F /  3.7 °C 29.88in /  1011.7hPa NW 1.2mph /  1.9km/h 14mph /  22.5km/h 61% 0.00in /  0mm 0 W/m2
20:59 51.7 °F /  10.9 °C 38.6 °F /  3.7 °C 29.89in /  1012.1hPa NW 3mph /  4.8km/h 14mph /  22.5km/h 60.8% 0.00in /  0mm 0 W/m2
21:04 51.7 °F /  10.9 °C 38.6 °F /  3.7 °C 29.89in /  1012.1hPa WNW 1.5mph /  2.4km/h 14mph /  22.5km/h 60.8% 0.00in /  0mm 0 W/m2
21:09 51.7 °F /  10.9 °C 38.7 °F /  3.7 °C 29.89in /  1012.1hPa NW 2mph /  3.2km/h 10mph /  16.1km/h 61% 0.00in /  0mm 0 W/m2
21:14 51.6 °F /  10.9 °C 38.5 °F /  3.6 °C 29.89in /  1012.1hPa NNW 0.4mph /  0.6km/h 10mph /  16.1km/h 60.8% 0.00in /  0mm 0 W/m2
21:19 51.6 °F /  10.9 °C 38.6 °F /  3.7 °C 29.89in /  1012.1hPa NNW 0.1mph /  0.2km/h 10mph /  16.1km/h 61% 0.00in /  0mm 0 W/m2
21:24 51.5 °F /  10.8 °C 38.6 °F /  3.7 °C 29.90in /  1012.4hPa NW 2.3mph /  3.7km/h 14mph /  22.5km/h 61.2% 0.00in /  0mm 0 W/m2
21:29 51.5 °F /  10.8 °C 38.6 °F /  3.7 °C 29.90in /  1012.4hPa NW 3mph /  4.8km/h 17mph /  27.4km/h 61.2% 0.00in /  0mm 0 W/m2
21:34 51.5 °F /  10.8 °C 38.5 °F /  3.6 °C 29.90in /  1012.4hPa WNW 3.3mph /  5.3km/h 17mph /  27.4km/h 61% 0.00in /  0mm 0 W/m2
21:39 51.5 °F /  10.8 °C 38.5 °F /  3.6 °C 29.90in /  1012.4hPa NW 2.7mph /  4.3km/h 13mph /  20.9km/h 61% 0.00in /  0mm 0 W/m2
21:44 51.4 °F /  10.8 °C 38.3 °F /  3.5 °C 29.90in /  1012.4hPa NW 3.7mph /  6km/h 13mph /  20.9km/h 60.6% 0.00in /  0mm 0 W/m2
21:49 51.5 °F /  10.8 °C 38.4 °F /  3.6 °C 29.90in /  1012.4hPa WNW 1.8mph /  2.9km/h 13mph /  20.9km/h 60.8% 0.00in /  0mm 0 W/m2
21:54 51.4 °F /  10.8 °C 38.4 °F /  3.6 °C 29.90in /  1012.4hPa NW 0.2mph /  0.3km/h 13mph /  20.9km/h 61% 0.00in /  0mm 0 W/m2
21:59 51.3 °F /  10.7 °C 38.7 °F /  3.7 °C 29.90in /  1012.4hPa NW 1.2mph /  1.9km/h 13mph /  20.9km/h 61.8% 0.00in /  0mm 0 W/m2
22:04 51.2 °F /  10.7 °C 38.4 °F /  3.6 °C 29.90in /  1012.4hPa NNW 0.7mph /  1.1km/h 13mph /  20.9km/h 61.5% 0.00in /  0mm 0 W/m2
22:09 51.1 °F /  10.6 °C 38.5 °F /  3.6 °C 29.90in /  1012.4hPa NW 2.4mph /  3.9km/h 17mph /  27.4km/h 62% 0.00in /  0mm 0 W/m2
22:14 51 °F /  10.6 °C 38.4 °F /  3.6 °C 29.90in /  1012.4hPa NW 1.7mph /  2.7km/h 17mph /  27.4km/h 62% 0.00in /  0mm 0 W/m2
22:19 50.9 °F /  10.5 °C 38.4 °F /  3.6 °C 29.91in /  1012.8hPa WNW 3.4mph /  5.5km/h 17mph /  27.4km/h 62% 0.00in /  0mm 0 W/m2
22:24 50.9 °F /  10.5 °C 38.4 °F /  3.6 °C 29.91in /  1012.8hPa WNW 0.9mph /  1.4km/h 17mph /  27.4km/h 62% 0.00in /  0mm 0 W/m2
22:29 50.8 °F /  10.4 °C 38.3 °F /  3.5 °C 29.91in /  1012.8hPa NW 3.5mph /  5.6km/h 18mph /  29km/h 62.1% 0.00in /  0mm 0 W/m2
22:34 50.8 °F /  10.4 °C 38.3 °F /  3.5 °C 29.92in /  1013.1hPa NW 3.1mph /  5km/h 18mph /  29km/h 62% 0.00in /  0mm 0 W/m2
22:39 50.8 °F /  10.4 °C 38.5 °F /  3.6 °C 29.92in /  1013.1hPa WNW 2.4mph /  3.9km/h 11mph /  17.7km/h 62.8% 0.00in /  0mm 0 W/m2
22:44 50.6 °F /  10.3 °C 38.6 °F /  3.7 °C 29.92in /  1013.1hPa WNW 0.8mph /  1.3km/h 11mph /  17.7km/h 63.2% 0.00in /  0mm 0 W/m2
22:49 50.5 °F /  10.3 °C 38.6 °F /  3.7 °C 29.92in /  1013.1hPa WNW 2.8mph /  4.5km/h 11mph /  17.7km/h 63.4% 0.00in /  0mm 0 W/m2
22:54 50.4 °F /  10.2 °C 38.7 °F /  3.7 °C 29.92in /  1013.1hPa WNW 2.2mph /  3.5km/h 12mph /  19.3km/h 64% 0.00in /  0mm 0 W/m2
22:59 50.3 °F /  10.2 °C 38.5 °F /  3.6 °C 29.92in /  1013.1hPa NW 0.5mph /  0.8km/h 12mph /  19.3km/h 63.8% 0.00in /  0mm 0 W/m2
23:04 50.3 °F /  10.2 °C 38.6 °F /  3.7 °C 29.93in /  1013.4hPa WNW 1.1mph /  1.8km/h 12mph /  19.3km/h 64% 0.00in /  0mm 0 W/m2
23:09 50.1 °F /  10.1 °C 38.5 °F /  3.6 °C 29.93in /  1013.4hPa WNW 1.1mph /  1.8km/h 12mph /  19.3km/h 64.1% 0.00in /  0mm 0 W/m2
23:14 50.1 °F /  10.1 °C 38.5 °F /  3.6 °C 29.93in /  1013.4hPa NW 2.1mph /  3.4km/h 12mph /  19.3km/h 64.4% 0.00in /  0mm 0 W/m2
23:19 50 °F /  10 °C 38.5 °F /  3.6 °C 29.94in /  1013.8hPa WNW 1.9mph /  3.1km/h 12mph /  19.3km/h 64.6% 0.00in /  0mm 0 W/m2
23:24 49.9 °F /  9.9 °C 38.6 °F /  3.7 °C 29.94in /  1013.8hPa WNW 1.7mph /  2.7km/h 13mph /  20.9km/h 64.8% 0.00in /  0mm 0 W/m2
23:29 49.9 °F /  9.9 °C 38.6 °F /  3.7 °C 29.94in /  1013.8hPa WNW 2.3mph /  3.7km/h 17mph /  27.4km/h 65% 0.00in /  0mm 0 W/m2
23:34 49.8 °F /  9.9 °C 38.6 °F /  3.7 °C 29.94in /  1013.8hPa West 1.1mph /  1.8km/h 17mph /  27.4km/h 65% 0.00in /  0mm 0 W/m2
23:39 49.8 °F /  9.9 °C 38.8 °F /  3.8 °C 29.94in /  1013.8hPa WNW 1mph /  1.6km/h 10mph /  16.1km/h 65.8% 0.00in /  0mm 0 W/m2
23:44 49.6 °F /  9.8 °C 38.8 °F /  3.8 °C 29.94in /  1013.8hPa WNW 0.6mph /  1km/h 10mph /  16.1km/h 66.1% 0.00in /  0mm 0 W/m2
23:49 49.5 °F /  9.7 °C 39 °F /  3.9 °C 29.94in /  1013.8hPa NW 0.3mph /  0.5km/h 10mph /  16.1km/h 67% 0.00in /  0mm 0 W/m2
23:54 49.3 °F /  9.6 °C 38.9 °F /  3.8 °C 29.94in /  1013.8hPa WNW 1.4mph /  2.3km/h 11mph /  17.7km/h 67% 0.00in /  0mm 0 W/m2
23:59 49.2 °F /  9.6 °C 38.7 °F /  3.7 °C 29.93in /  1013.4hPa WNW 1.9mph /  3.1km/h 11mph /  17.7km/h 67% 0.00in /  0mm 0 W/m2
Hartford County Weather
Compliments of Weather Underground - 4 mb